sensor_id;sensor_type;location;lat;lon;timestamp;temperature;humidity
33328;DHT22;19692;52.998;9.116;2022-08-01T00:01:03;18.70;99.90
33328;DHT22;19692;52.998;9.116;2022-08-01T00:03:29;18.70;99.90
33328;DHT22;19692;52.998;9.116;2022-08-01T00:05:55;18.70;99.90
33328;DHT22;19692;52.998;9.116;2022-08-01T00:08:20;18.70;99.90
33328;DHT22;19692;52.998;9.116;2022-08-01T00:10:46;18.70;99.90
33328;DHT22;19692;52.998;9.116;2022-08-01T00:13:12;18.70;99.90
33328;DHT22;19692;52.998;9.116;2022-08-01T00:15:38;18.70;99.90
33328;DHT22;19692;52.998;9.116;2022-08-01T00:18:03;18.70;99.90
33328;DHT22;19692;52.998;9.116;2022-08-01T00:20:29;18.60;99.90
33328;DHT22;19692;52.998;9.116;2022-08-01T00:22:55;18.60;99.90
33328;DHT22;19692;52.998;9.116;2022-08-01T00:25:21;18.60;99.90
33328;DHT22;19692;52.998;9.116;2022-08-01T00:27:46;18.50;99.90
33328;DHT22;19692;52.998;9.116;2022-08-01T00:30:12;18.40;99.90
33328;DHT22;19692;52.998;9.116;2022-08-01T00:32:38;18.40;99.90
33328;DHT22;19692;52.998;9.116;2022-08-01T00:35:04;18.40;99.90
33328;DHT22;19692;52.998;9.116;2022-08-01T00:37:30;18.40;99.90
33328;DHT22;19692;52.998;9.116;2022-08-01T00:39:55;18.40;99.90
33328;DHT22;19692;52.998;9.116;2022-08-01T00:42:21;18.30;99.90
33328;DHT22;19692;52.998;9.116;2022-08-01T00:44:47;18.30;99.90
33328;DHT22;19692;52.998;9.116;2022-08-01T00:47:13;18.30;99.90
33328;DHT22;19692;52.998;9.116;2022-08-01T00:49:38;18.30;99.90
33328;DHT22;19692;52.998;9.116;2022-08-01T00:52:05;18.20;99.90
33328;DHT22;19692;52.998;9.116;2022-08-01T00:54:31;18.20;99.90
33328;DHT22;19692;52.998;9.116;2022-08-01T00:56:57;18.20;99.90
33328;DHT22;19692;52.998;9.116;2022-08-01T00:59:24;18.20;99.90
33328;DHT22;19692;52.998;9.116;2022-08-01T01:01:49;18.20;99.90
33328;DHT22;19692;52.998;9.116;2022-08-01T01:04:16;18.20;99.90
33328;DHT22;19692;52.998;9.116;2022-08-01T01:06:44;18.20;99.90
33328;DHT22;19692;52.998;9.116;2022-08-01T01:09:25;18.20;99.90
33328;DHT22;19692;52.998;9.116;2022-08-01T01:18:11;18.10;99.90
33328;DHT22;19692;52.998;9.116;2022-08-01T01:20:58;18.10;99.90
33328;DHT22;19692;52.998;9.116;2022-08-01T01:29:18;18.10;99.90
33328;DHT22;19692;52.998;9.116;2022-08-01T01:31:55;18.10;99.90
33328;DHT22;19692;52.998;9.116;2022-08-01T01:34:27;18.00;99.90
33328;DHT22;19692;52.998;9.116;2022-08-01T01:36:54;18.10;99.90
33328;DHT22;19692;52.998;9.116;2022-08-01T01:39:24;18.10;99.90
33328;DHT22;19692;52.998;9.116;2022-08-01T01:41:52;18.20;99.90
33328;DHT22;19692;52.998;9.116;2022-08-01T01:44:18;18.30;99.90
33328;DHT22;19692;52.998;9.116;2022-08-01T01:46:45;18.30;99.90
33328;DHT22;19692;52.998;9.116;2022-08-01T01:49:14;18.30;99.90
33328;DHT22;19692;52.998;9.116;2022-08-01T01:51:41;18.20;99.90
33328;DHT22;19692;52.998;9.116;2022-08-01T01:54:08;18.20;99.90
33328;DHT22;19692;52.998;9.116;2022-08-01T01:56:35;18.20;99.90
33328;DHT22;19692;52.998;9.116;2022-08-01T01:59:16;18.10;99.90
33328;DHT22;19692;52.998;9.116;2022-08-01T02:01:46;18.20;99.90
33328;DHT22;19692;52.998;9.116;2022-08-01T02:04:14;18.20;99.90
33328;DHT22;19692;52.998;9.116;2022-08-01T02:06:40;18.20;99.90
33328;DHT22;19692;52.998;9.116;2022-08-01T02:09:08;18.20;99.90
33328;DHT22;19692;52.998;9.116;2022-08-01T02:11:36;18.30;99.90
33328;DHT22;19692;52.998;9.116;2022-08-01T02:14:05;18.30;99.90
33328;DHT22;19692;52.998;9.116;2022-08-01T02:16:35;18.40;99.90
33328;DHT22;19692;52.998;9.116;2022-08-01T02:19:02;18.40;99.90
33328;DHT22;19692;52.998;9.116;2022-08-01T02:21:30;18.30;99.90
33328;DHT22;19692;52.998;9.116;2022-08-01T02:24:13;18.40;99.90
33328;DHT22;19692;52.998;9.116;2022-08-01T02:26:44;18.40;99.90
33328;DHT22;19692;52.998;9.116;2022-08-01T02:29:17;18.40;99.90
33328;DHT22;19692;52.998;9.116;2022-08-01T02:31:47;18.40;99.90
33328;DHT22;19692;52.998;9.116;2022-08-01T02:34:17;18.40;99.90
33328;DHT22;19692;52.998;9.116;2022-08-01T02:36:45;18.30;99.90
33328;DHT22;19692;52.998;9.116;2022-08-01T02:39:15;18.30;99.90
33328;DHT22;19692;52.998;9.116;2022-08-01T02:41:47;18.20;99.90
33328;DHT22;19692;52.998;9.116;2022-08-01T02:44:24;18.10;99.90
33328;DHT22;19692;52.998;9.116;2022-08-01T02:47:02;18.00;99.90
33328;DHT22;19692;52.998;9.116;2022-08-01T02:49:35;17.90;99.90
33328;DHT22;19692;52.998;9.116;2022-08-01T02:52:06;17.90;99.90
33328;DHT22;19692;52.998;9.116;2022-08-01T02:54:35;18.00;99.90
33328;DHT22;19692;52.998;9.116;2022-08-01T02:57:03;17.90;99.90
33328;DHT22;19692;52.998;9.116;2022-08-01T02:59:31;17.90;99.90
33328;DHT22;19692;52.998;9.116;2022-08-01T03:02:00;18.00;99.90
33328;DHT22;19692;52.998;9.116;2022-08-01T03:04:27;17.90;99.90
33328;DHT22;19692;52.998;9.116;2022-08-01T03:06:54;17.90;99.90
33328;DHT22;19692;52.998;9.116;2022-08-01T03:09:25;17.80;99.90
33328;DHT22;19692;52.998;9.116;2022-08-01T03:11:52;17.80;99.90
33328;DHT22;19692;52.998;9.116;2022-08-01T03:14:20;17.80;99.90
33328;DHT22;19692;52.998;9.116;2022-08-01T03:16:47;17.80;99.90
33328;DHT22;19692;52.998;9.116;2022-08-01T03:19:15;17.70;99.90
33328;DHT22;19692;52.998;9.116;2022-08-01T03:21:44;17.70;99.90
33328;DHT22;19692;52.998;9.116;2022-08-01T03:24:11;17.70;99.90
33328;DHT22;19692;52.998;9.116;2022-08-01T03:26:39;17.70;99.90
33328;DHT22;19692;52.998;9.116;2022-08-01T03:29:10;17.70;99.90
33328;DHT22;19692;52.998;9.116;2022-08-01T03:31:38;17.80;99.90
33328;DHT22;19692;52.998;9.116;2022-08-01T03:34:08;17.70;99.90
33328;DHT22;19692;52.998;9.116;2022-08-01T03:36:43;17.70;99.90
33328;DHT22;19692;52.998;9.116;2022-08-01T03:39:12;17.70;99.90
33328;DHT22;19692;52.998;9.116;2022-08-01T03:41:42;17.80;99.90
33328;DHT22;19692;52.998;9.116;2022-08-01T03:44:16;17.70;99.90
33328;DHT22;19692;52.998;9.116;2022-08-01T03:46:54;17.70;99.90
33328;DHT22;19692;52.998;9.116;2022-08-01T03:49:27;17.70;99.90
33328;DHT22;19692;52.998;9.116;2022-08-01T03:51:57;17.70;99.90
33328;DHT22;19692;52.998;9.116;2022-08-01T03:54:25;17.70;99.90
33328;DHT22;19692;52.998;9.116;2022-08-01T03:57:00;17.70;99.90
33328;DHT22;19692;52.998;9.116;2022-08-01T03:59:27;17.70;99.90
33328;DHT22;19692;52.998;9.116;2022-08-01T04:01:55;17.70;99.90
33328;DHT22;19692;52.998;9.116;2022-08-01T04:04:21;17.70;99.90
33328;DHT22;19692;52.998;9.116;2022-08-01T04:06:47;17.70;99.90
33328;DHT22;19692;52.998;9.116;2022-08-01T04:09:16;17.80;99.90
33328;DHT22;19692;52.998;9.116;2022-08-01T04:11:42;17.70;99.90
33328;DHT22;19692;52.998;9.116;2022-08-01T04:14:08;17.70;99.90
33328;DHT22;19692;52.998;9.116;2022-08-01T04:16:33;17.70;99.90
33328;DHT22;19692;52.998;9.116;2022-08-01T04:18:59;17.70;99.90
33328;DHT22;19692;52.998;9.116;2022-08-01T04:21:28;17.60;99.90
33328;DHT22;19692;52.998;9.116;2022-08-01T04:23:59;17.60;99.90
33328;DHT22;19692;52.998;9.116;2022-08-01T04:26:31;17.60;99.90
33328;DHT22;19692;52.998;9.116;2022-08-01T04:28:58;17.50;99.90
33328;DHT22;19692;52.998;9.116;2022-08-01T04:31:27;17.50;99.90
33328;DHT22;19692;52.998;9.116;2022-08-01T04:33:54;17.50;99.90
33328;DHT22;19692;52.998;9.116;2022-08-01T04:36:23;17.40;99.90
33328;DHT22;19692;52.998;9.116;2022-08-01T04:38:52;17.50;99.90
33328;DHT22;19692;52.998;9.116;2022-08-01T04:41:22;17.50;99.90
33328;DHT22;19692;52.998;9.116;2022-08-01T04:43:48;17.50;99.90
33328;DHT22;19692;52.998;9.116;2022-08-01T04:46:16;17.50;99.90
33328;DHT22;19692;52.998;9.116;2022-08-01T04:48:43;17.50;99.90
33328;DHT22;19692;52.998;9.116;2022-08-01T04:51:14;17.50;99.90
33328;DHT22;19692;52.998;9.116;2022-08-01T04:53:42;17.50;99.90
33328;DHT22;19692;52.998;9.116;2022-08-01T04:56:08;17.50;99.90
33328;DHT22;19692;52.998;9.116;2022-08-01T04:58:34;17.60;99.90
33328;DHT22;19692;52.998;9.116;2022-08-01T05:01:00;17.70;99.90
33328;DHT22;19692;52.998;9.116;2022-08-01T05:03:26;17.60;99.90
33328;DHT22;19692;52.998;9.116;2022-08-01T05:05:51;17.70;99.90
33328;DHT22;19692;52.998;9.116;2022-08-01T05:08:17;17.70;99.90
33328;DHT22;19692;52.998;9.116;2022-08-01T05:10:43;17.60;99.90
33328;DHT22;19692;52.998;9.116;2022-08-01T05:13:09;17.60;99.90
33328;DHT22;19692;52.998;9.116;2022-08-01T05:15:35;17.50;99.90
33328;DHT22;19692;52.998;9.116;2022-08-01T05:18:04;17.40;99.90
33328;DHT22;19692;52.998;9.116;2022-08-01T05:20:30;17.30;99.90
33328;DHT22;19692;52.998;9.116;2022-08-01T05:22:55;17.30;99.90
33328;DHT22;19692;52.998;9.116;2022-08-01T05:25:22;17.30;99.90
33328;DHT22;19692;52.998;9.116;2022-08-01T05:27:48;17.30;99.90
33328;DHT22;19692;52.998;9.116;2022-08-01T05:30:14;17.30;99.90
33328;DHT22;19692;52.998;9.116;2022-08-01T05:32:40;17.40;99.90
33328;DHT22;19692;52.998;9.116;2022-08-01T05:35:07;17.30;99.90
33328;DHT22;19692;52.998;9.116;2022-08-01T05:37:33;17.30;99.90
33328;DHT22;19692;52.998;9.116;2022-08-01T05:39:59;17.30;99.90
33328;DHT22;19692;52.998;9.116;2022-08-01T05:42:25;17.30;99.90
33328;DHT22;19692;52.998;9.116;2022-08-01T05:44:50;17.30;99.90
33328;DHT22;19692;52.998;9.116;2022-08-01T05:47:17;17.40;99.90
33328;DHT22;19692;52.998;9.116;2022-08-01T05:49:43;17.40;99.90
33328;DHT22;19692;52.998;9.116;2022-08-01T05:52:10;17.40;99.90
33328;DHT22;19692;52.998;9.116;2022-08-01T05:54:35;17.50;99.90
33328;DHT22;19692;52.998;9.116;2022-08-01T05:57:01;17.40;99.90
33328;DHT22;19692;52.998;9.116;2022-08-01T05:59:28;17.50;99.90
33328;DHT22;19692;52.998;9.116;2022-08-01T06:01:54;17.40;99.90
33328;DHT22;19692;52.998;9.116;2022-08-01T06:04:20;17.40;99.90
33328;DHT22;19692;52.998;9.116;2022-08-01T06:06:46;17.40;99.90
33328;DHT22;19692;52.998;9.116;2022-08-01T06:09:12;17.30;99.90
33328;DHT22;19692;52.998;9.116;2022-08-01T06:11:38;17.30;99.90
33328;DHT22;19692;52.998;9.116;2022-08-01T06:14:03;17.20;99.90
33328;DHT22;19692;52.998;9.116;2022-08-01T06:16:29;17.30;99.90
33328;DHT22;19692;52.998;9.116;2022-08-01T06:18:55;17.10;99.90
33328;DHT22;19692;52.998;9.116;2022-08-01T06:21:21;17.10;99.90
33328;DHT22;19692;52.998;9.116;2022-08-01T06:23:46;17.00;99.90
33328;DHT22;19692;52.998;9.116;2022-08-01T06:26:12;17.00;99.90
33328;DHT22;19692;52.998;9.116;2022-08-01T06:28:38;17.00;99.90
33328;DHT22;19692;52.998;9.116;2022-08-01T06:31:06;17.10;99.90
33328;DHT22;19692;52.998;9.116;2022-08-01T06:33:32;17.20;99.90
33328;DHT22;19692;52.998;9.116;2022-08-01T06:35:57;17.20;99.90
33328;DHT22;19692;52.998;9.116;2022-08-01T06:38:23;17.10;99.90
33328;DHT22;19692;52.998;9.116;2022-08-01T06:40:49;17.00;99.90
33328;DHT22;19692;52.998;9.116;2022-08-01T06:43:15;17.00;99.90
33328;DHT22;19692;52.998;9.116;2022-08-01T06:45:41;17.10;99.90
33328;DHT22;19692;52.998;9.116;2022-08-01T06:48:07;17.10;99.90
33328;DHT22;19692;52.998;9.116;2022-08-01T06:50:33;17.10;99.90
33328;DHT22;19692;52.998;9.116;2022-08-01T06:53:01;17.20;99.90
33328;DHT22;19692;52.998;9.116;2022-08-01T06:55:26;17.20;99.90
33328;DHT22;19692;52.998;9.116;2022-08-01T06:57:52;17.20;99.90
33328;DHT22;19692;52.998;9.116;2022-08-01T07:00:20;17.20;99.90
33328;DHT22;19692;52.998;9.116;2022-08-01T07:02:55;17.20;99.90
33328;DHT22;19692;52.998;9.116;2022-08-01T07:05:22;17.10;99.90
33328;DHT22;19692;52.998;9.116;2022-08-01T07:07:48;17.10;99.90
33328;DHT22;19692;52.998;9.116;2022-08-01T07:10:14;17.10;99.90
33328;DHT22;19692;52.998;9.116;2022-08-01T07:12:40;17.10;99.90
33328;DHT22;19692;52.998;9.116;2022-08-01T07:15:08;17.10;99.90
33328;DHT22;19692;52.998;9.116;2022-08-01T07:17:41;17.10;99.90
33328;DHT22;19692;52.998;9.116;2022-08-01T07:20:09;17.10;99.90
33328;DHT22;19692;52.998;9.116;2022-08-01T07:22:37;17.00;99.90
33328;DHT22;19692;52.998;9.116;2022-08-01T07:25:06;17.10;99.90
33328;DHT22;19692;52.998;9.116;2022-08-01T07:27:33;17.10;99.90
33328;DHT22;19692;52.998;9.116;2022-08-01T07:29:59;17.10;99.90
33328;DHT22;19692;52.998;9.116;2022-08-01T07:32:25;17.10;99.90
33328;DHT22;19692;52.998;9.116;2022-08-01T07:34:51;17.20;99.90
33328;DHT22;19692;52.998;9.116;2022-08-01T07:37:16;17.40;99.90
33328;DHT22;19692;52.998;9.116;2022-08-01T07:39:42;17.40;99.90
33328;DHT22;19692;52.998;9.116;2022-08-01T07:42:08;17.60;99.90
33328;DHT22;19692;52.998;9.116;2022-08-01T07:44:35;17.60;99.90
33328;DHT22;19692;52.998;9.116;2022-08-01T07:47:01;17.60;99.90
33328;DHT22;19692;52.998;9.116;2022-08-01T07:49:27;17.50;99.90
33328;DHT22;19692;52.998;9.116;2022-08-01T07:51:52;17.40;99.90
33328;DHT22;19692;52.998;9.116;2022-08-01T07:54:19;17.60;99.90
33328;DHT22;19692;52.998;9.116;2022-08-01T07:56:45;17.60;99.90
33328;DHT22;19692;52.998;9.116;2022-08-01T07:59:10;17.60;99.90
33328;DHT22;19692;52.998;9.116;2022-08-01T08:01:36;17.70;99.90
33328;DHT22;19692;52.998;9.116;2022-08-01T08:04:02;17.80;99.90
33328;DHT22;19692;52.998;9.116;2022-08-01T08:06:28;17.90;99.90
33328;DHT22;19692;52.998;9.116;2022-08-01T08:08:53;17.80;99.90
33328;DHT22;19692;52.998;9.116;2022-08-01T08:11:19;17.80;99.90
33328;DHT22;19692;52.998;9.116;2022-08-01T08:13:45;17.80;99.90
33328;DHT22;19692;52.998;9.116;2022-08-01T08:16:11;17.90;99.90
33328;DHT22;19692;52.998;9.116;2022-08-01T08:18:36;17.90;99.90
33328;DHT22;19692;52.998;9.116;2022-08-01T08:21:03;18.10;99.90
33328;DHT22;19692;52.998;9.116;2022-08-01T08:23:29;18.10;99.90
33328;DHT22;19692;52.998;9.116;2022-08-01T08:26:13;18.10;99.90
33328;DHT22;19692;52.998;9.116;2022-08-01T08:28:38;18.00;99.90
33328;DHT22;19692;52.998;9.116;2022-08-01T08:31:04;18.00;99.90
33328;DHT22;19692;52.998;9.116;2022-08-01T08:33:30;18.10;99.90
33328;DHT22;19692;52.998;9.116;2022-08-01T08:35:56;18.20;99.90
33328;DHT22;19692;52.998;9.116;2022-08-01T08:38:22;18.30;99.90
33328;DHT22;19692;52.998;9.116;2022-08-01T08:40:47;18.40;99.90
33328;DHT22;19692;52.998;9.116;2022-08-01T08:43:15;18.50;99.90
33328;DHT22;19692;52.998;9.116;2022-08-01T08:45:41;18.50;99.90
33328;DHT22;19692;52.998;9.116;2022-08-01T08:48:08;18.50;99.90
33328;DHT22;19692;52.998;9.116;2022-08-01T08:50:34;18.50;99.90
33328;DHT22;19692;52.998;9.116;2022-08-01T08:53:01;18.60;99.90
33328;DHT22;19692;52.998;9.116;2022-08-01T08:55:27;18.90;99.90
33328;DHT22;19692;52.998;9.116;2022-08-01T08:57:54;19.10;99.90
33328;DHT22;19692;52.998;9.116;2022-08-01T09:00:20;19.50;99.90
33328;DHT22;19692;52.998;9.116;2022-08-01T09:02:47;20.00;99.90
33328;DHT22;19692;52.998;9.116;2022-08-01T09:05:14;20.40;99.90
33328;DHT22;19692;52.998;9.116;2022-08-01T09:07:40;20.70;99.90
33328;DHT22;19692;52.998;9.116;2022-08-01T09:10:07;20.90;99.90
33328;DHT22;19692;52.998;9.116;2022-08-01T09:12:36;20.80;99.90
33328;DHT22;19692;52.998;9.116;2022-08-01T09:15:02;20.00;99.90
33328;DHT22;19692;52.998;9.116;2022-08-01T09:17:39;19.70;99.90
33328;DHT22;19692;52.998;9.116;2022-08-01T09:20:06;19.50;99.90
33328;DHT22;19692;52.998;9.116;2022-08-01T09:22:33;19.40;99.90
33328;DHT22;19692;52.998;9.116;2022-08-01T09:25:06;19.40;99.90
33328;DHT22;19692;52.998;9.116;2022-08-01T09:27:35;19.60;99.90
33328;DHT22;19692;52.998;9.116;2022-08-01T09:30:16;19.80;99.90
33328;DHT22;19692;52.998;9.116;2022-08-01T09:32:53;20.10;99.90
33328;DHT22;19692;52.998;9.116;2022-08-01T09:35:31;20.10;99.90
33328;DHT22;19692;52.998;9.116;2022-08-01T09:38:21;20.10;99.90
33328;DHT22;19692;52.998;9.116;2022-08-01T09:40:56;20.20;99.90
33328;DHT22;19692;52.998;9.116;2022-08-01T09:43:25;20.50;99.90
33328;DHT22;19692;52.998;9.116;2022-08-01T09:45:52;20.80;99.90
33328;DHT22;19692;52.998;9.116;2022-08-01T09:48:18;21.10;99.90
33328;DHT22;19692;52.998;9.116;2022-08-01T09:50:46;21.30;99.90
33328;DHT22;19692;52.998;9.116;2022-08-01T09:53:13;21.80;99.90
33328;DHT22;19692;52.998;9.116;2022-08-01T09:55:40;22.00;99.90
33328;DHT22;19692;52.998;9.116;2022-08-01T09:58:07;22.50;99.90
33328;DHT22;19692;52.998;9.116;2022-08-01T10:00:34;22.70;99.90
33328;DHT22;19692;52.998;9.116;2022-08-01T10:03:24;22.90;99.90
33328;DHT22;19692;52.998;9.116;2022-08-01T10:05:52;23.10;99.90
33328;DHT22;19692;52.998;9.116;2022-08-01T10:08:23;23.10;99.90
33328;DHT22;19692;52.998;9.116;2022-08-01T10:11:08;22.90;99.90
33328;DHT22;19692;52.998;9.116;2022-08-01T10:13:36;22.50;99.90
33328;DHT22;19692;52.998;9.116;2022-08-01T10:16:02;22.40;99.90
33328;DHT22;19692;52.998;9.116;2022-08-01T10:18:32;22.40;99.90
33328;DHT22;19692;52.998;9.116;2022-08-01T10:21:00;22.40;99.90
33328;DHT22;19692;52.998;9.116;2022-08-01T10:23:27;22.60;99.90
33328;DHT22;19692;52.998;9.116;2022-08-01T10:25:58;22.70;99.90
33328;DHT22;19692;52.998;9.116;2022-08-01T10:28:25;23.00;99.90
33328;DHT22;19692;52.998;9.116;2022-08-01T10:30:52;23.30;99.90
33328;DHT22;19692;52.998;9.116;2022-08-01T10:33:18;23.50;99.90
33328;DHT22;19692;52.998;9.116;2022-08-01T10:35:47;23.70;99.90
33328;DHT22;19692;52.998;9.116;2022-08-01T10:38:13;23.80;99.90
33328;DHT22;19692;52.998;9.116;2022-08-01T10:40:41;23.60;99.90
33328;DHT22;19692;52.998;9.116;2022-08-01T10:43:09;23.10;99.90
33328;DHT22;19692;52.998;9.116;2022-08-01T10:45:36;22.90;99.90
33328;DHT22;19692;52.998;9.116;2022-08-01T10:50:51;23.30;99.90
33328;DHT22;19692;52.998;9.116;2022-08-01T10:53:23;23.50;99.90
33328;DHT22;19692;52.998;9.116;2022-08-01T10:58:33;24.30;99.90
33328;DHT22;19692;52.998;9.116;2022-08-01T11:03:41;24.20;99.90
33328;DHT22;19692;52.998;9.116;2022-08-01T11:06:15;24.00;99.90
33328;DHT22;19692;52.998;9.116;2022-08-01T11:08:50;23.50;99.90
33328;DHT22;19692;52.998;9.116;2022-08-01T11:11:18;23.20;99.90
33328;DHT22;19692;52.998;9.116;2022-08-01T11:14:07;23.20;99.90
33328;DHT22;19692;52.998;9.116;2022-08-01T11:16:37;23.50;99.90
33328;DHT22;19692;52.998;9.116;2022-08-01T11:19:04;23.70;99.90
33328;DHT22;19692;52.998;9.116;2022-08-01T11:27:21;24.40;99.90
33328;DHT22;19692;52.998;9.116;2022-08-01T11:30:27;24.20;99.90
33328;DHT22;19692;52.998;9.116;2022-08-01T11:32:57;23.70;99.90
33328;DHT22;19692;52.998;9.116;2022-08-01T11:35:24;23.20;99.90
33328;DHT22;19692;52.998;9.116;2022-08-01T11:37:55;23.20;99.90
33328;DHT22;19692;52.998;9.116;2022-08-01T11:40:26;23.20;99.90
33328;DHT22;19692;52.998;9.116;2022-08-01T11:45:55;23.80;99.90
33328;DHT22;19692;52.998;9.116;2022-08-01T11:48:22;23.90;99.90
33328;DHT22;19692;52.998;9.116;2022-08-01T11:50:55;24.00;99.90
33328;DHT22;19692;52.998;9.116;2022-08-01T11:53:22;24.00;99.90
33328;DHT22;19692;52.998;9.116;2022-08-01T11:55:53;24.30;99.90
33328;DHT22;19692;52.998;9.116;2022-08-01T11:58:24;24.20;99.90
33328;DHT22;19692;52.998;9.116;2022-08-01T12:00:55;24.30;99.90
33328;DHT22;19692;52.998;9.116;2022-08-01T12:03:30;24.60;99.90
33328;DHT22;19692;52.998;9.116;2022-08-01T12:05:58;24.30;99.90
33328;DHT22;19692;52.998;9.116;2022-08-01T12:08:28;23.90;99.90
33328;DHT22;19692;52.998;9.116;2022-08-01T12:10:55;24.00;99.90
33328;DHT22;19692;52.998;9.116;2022-08-01T12:13:21;24.30;99.90
33328;DHT22;19692;52.998;9.116;2022-08-01T12:15:48;24.30;99.90
33328;DHT22;19692;52.998;9.116;2022-08-01T12:18:15;24.40;99.90
33328;DHT22;19692;52.998;9.116;2022-08-01T12:20:44;24.10;99.90
33328;DHT22;19692;52.998;9.116;2022-08-01T12:23:13;24.10;99.90
33328;DHT22;19692;52.998;9.116;2022-08-01T12:25:40;24.10;99.90
33328;DHT22;19692;52.998;9.116;2022-08-01T12:28:08;24.20;99.90
33328;DHT22;19692;52.998;9.116;2022-08-01T12:30:36;24.20;99.90
33328;DHT22;19692;52.998;9.116;2022-08-01T12:33:04;24.40;99.90
33328;DHT22;19692;52.998;9.116;2022-08-01T12:35:31;23.70;99.90
33328;DHT22;19692;52.998;9.116;2022-08-01T12:38:01;23.30;99.90
33328;DHT22;19692;52.998;9.116;2022-08-01T12:40:33;23.10;99.90
33328;DHT22;19692;52.998;9.116;2022-08-01T12:43:05;23.50;99.90
33328;DHT22;19692;52.998;9.116;2022-08-01T12:45:43;23.50;99.90
33328;DHT22;19692;52.998;9.116;2022-08-01T12:48:10;23.70;99.90
33328;DHT22;19692;52.998;9.116;2022-08-01T12:50:39;24.00;99.90
33328;DHT22;19692;52.998;9.116;2022-08-01T12:53:08;24.30;99.90
33328;DHT22;19692;52.998;9.116;2022-08-01T12:55:44;24.30;99.90
33328;DHT22;19692;52.998;9.116;2022-08-01T12:58:12;24.30;99.90
33328;DHT22;19692;52.998;9.116;2022-08-01T13:00:40;24.60;99.90
33328;DHT22;19692;52.998;9.116;2022-08-01T13:03:12;24.40;99.90
33328;DHT22;19692;52.998;9.116;2022-08-01T13:05:43;24.00;99.90
33328;DHT22;19692;52.998;9.116;2022-08-01T13:08:15;23.30;99.90
33328;DHT22;19692;52.998;9.116;2022-08-01T13:10:43;23.20;99.90
33328;DHT22;19692;52.998;9.116;2022-08-01T13:13:10;23.60;99.90
33328;DHT22;19692;52.998;9.116;2022-08-01T13:15:38;23.90;99.90
33328;DHT22;19692;52.998;9.116;2022-08-01T13:18:34;23.50;99.90
33328;DHT22;19692;52.998;9.116;2022-08-01T13:21:17;22.70;99.90
33328;DHT22;19692;52.998;9.116;2022-08-01T13:26:49;23.10;99.90
33328;DHT22;19692;52.998;9.116;2022-08-01T13:29:21;23.20;99.90
33328;DHT22;19692;52.998;9.116;2022-08-01T13:31:54;22.60;99.90
33328;DHT22;19692;52.998;9.116;2022-08-01T13:34:33;22.50;99.90
33328;DHT22;19692;52.998;9.116;2022-08-01T13:37:00;22.80;99.90
33328;DHT22;19692;52.998;9.116;2022-08-01T13:39:28;22.90;99.90
33328;DHT22;19692;52.998;9.116;2022-08-01T13:42:08;23.00;99.90
33328;DHT22;19692;52.998;9.116;2022-08-01T13:44:34;22.70;99.90
33328;DHT22;19692;52.998;9.116;2022-08-01T13:47:04;22.70;99.90
33328;DHT22;19692;52.998;9.116;2022-08-01T13:49:31;22.60;99.90
33328;DHT22;19692;52.998;9.116;2022-08-01T13:51:57;22.50;99.90
33328;DHT22;19692;52.998;9.116;2022-08-01T13:54:24;23.00;99.90
33328;DHT22;19692;52.998;9.116;2022-08-01T13:56:50;23.30;99.90
33328;DHT22;19692;52.998;9.116;2022-08-01T13:59:16;23.00;99.90
33328;DHT22;19692;52.998;9.116;2022-08-01T14:01:42;23.10;99.90
33328;DHT22;19692;52.998;9.116;2022-08-01T14:04:08;22.90;99.90
33328;DHT22;19692;52.998;9.116;2022-08-01T14:06:34;23.00;99.90
33328;DHT22;19692;52.998;9.116;2022-08-01T14:09:00;22.80;99.90
33328;DHT22;19692;52.998;9.116;2022-08-01T14:11:27;23.20;99.90
33328;DHT22;19692;52.998;9.116;2022-08-01T14:13:53;23.70;99.90
33328;DHT22;19692;52.998;9.116;2022-08-01T14:16:19;24.00;99.90
33328;DHT22;19692;52.998;9.116;2022-08-01T14:18:45;23.90;99.90
33328;DHT22;19692;52.998;9.116;2022-08-01T14:21:11;23.70;99.90
33328;DHT22;19692;52.998;9.116;2022-08-01T14:23:37;23.40;99.90
33328;DHT22;19692;52.998;9.116;2022-08-01T14:26:03;23.30;99.90
33328;DHT22;19692;52.998;9.116;2022-08-01T14:28:29;23.40;99.90
33328;DHT22;19692;52.998;9.116;2022-08-01T14:30:58;23.30;99.90
33328;DHT22;19692;52.998;9.116;2022-08-01T14:33:25;23.40;99.90
33328;DHT22;19692;52.998;9.116;2022-08-01T14:35:51;23.10;99.90
33328;DHT22;19692;52.998;9.116;2022-08-01T14:38:17;23.00;99.90
33328;DHT22;19692;52.998;9.116;2022-08-01T14:40:43;23.10;99.90
33328;DHT22;19692;52.998;9.116;2022-08-01T14:43:12;23.10;99.90
33328;DHT22;19692;52.998;9.116;2022-08-01T14:45:38;22.70;99.90
33328;DHT22;19692;52.998;9.116;2022-08-01T14:48:04;22.60;99.90
33328;DHT22;19692;52.998;9.116;2022-08-01T14:50:30;22.60;99.90
33328;DHT22;19692;52.998;9.116;2022-08-01T14:52:56;22.50;99.90
33328;DHT22;19692;52.998;9.116;2022-08-01T14:55:22;22.30;99.90
33328;DHT22;19692;52.998;9.116;2022-08-01T14:57:50;22.00;99.90
33328;DHT22;19692;52.998;9.116;2022-08-01T15:00:16;22.20;99.90
33328;DHT22;19692;52.998;9.116;2022-08-01T15:02:43;22.40;99.90
33328;DHT22;19692;52.998;9.116;2022-08-01T15:05:09;22.50;99.90
33328;DHT22;19692;52.998;9.116;2022-08-01T15:07:36;22.50;99.90
33328;DHT22;19692;52.998;9.116;2022-08-01T15:10:03;22.00;99.90
33328;DHT22;19692;52.998;9.116;2022-08-01T15:12:30;21.60;99.90
33328;DHT22;19692;52.998;9.116;2022-08-01T15:14:56;21.70;99.90
33328;DHT22;19692;52.998;9.116;2022-08-01T15:17:25;21.60;99.90
33328;DHT22;19692;52.998;9.116;2022-08-01T15:19:55;21.70;99.90
33328;DHT22;19692;52.998;9.116;2022-08-01T15:22:23;21.50;99.90
33328;DHT22;19692;52.998;9.116;2022-08-01T15:24:51;21.50;99.90
33328;DHT22;19692;52.998;9.116;2022-08-01T15:27:18;21.60;99.90
33328;DHT22;19692;52.998;9.116;2022-08-01T15:29:44;21.90;99.90
33328;DHT22;19692;52.998;9.116;2022-08-01T15:32:10;22.00;99.90
33328;DHT22;19692;52.998;9.116;2022-08-01T15:34:37;21.90;99.90
33328;DHT22;19692;52.998;9.116;2022-08-01T15:37:04;22.10;99.90
33328;DHT22;19692;52.998;9.116;2022-08-01T15:39:31;22.00;99.90
33328;DHT22;19692;52.998;9.116;2022-08-01T15:42:24;22.10;99.90
33328;DHT22;19692;52.998;9.116;2022-08-01T15:44:50;22.30;99.90
33328;DHT22;19692;52.998;9.116;2022-08-01T15:47:16;22.70;99.90
33328;DHT22;19692;52.998;9.116;2022-08-01T15:49:42;22.90;99.90
33328;DHT22;19692;52.998;9.116;2022-08-01T15:52:08;22.80;99.90
33328;DHT22;19692;52.998;9.116;2022-08-01T15:54:35;22.60;99.90
33328;DHT22;19692;52.998;9.116;2022-08-01T15:57:01;22.40;99.90
33328;DHT22;19692;52.998;9.116;2022-08-01T15:59:27;22.30;99.90
33328;DHT22;19692;52.998;9.116;2022-08-01T16:01:53;22.10;99.90
33328;DHT22;19692;52.998;9.116;2022-08-01T16:04:19;22.30;99.90
33328;DHT22;19692;52.998;9.116;2022-08-01T16:06:45;22.40;99.90
33328;DHT22;19692;52.998;9.116;2022-08-01T16:09:11;22.70;99.90